Time;durP1;ratioP1;P1;durP2;ratioP2;P2;SDS_P1;SDS_P2;PMS_P1;PMS_P2;Temp;Humidity;BMP_temperature;BMP_pressure;BME280_temperature;BME280_humidity;BME280_pressure;Samples;Min_cycle;Max_cycle;Signal;HPM_P1;HPM_P2
2023/05/05 00:01:24;;;;;;;8.15;4.85;;;13.70;97.70;;;;;;5051222;28;20045;-60
2023/05/05 00:03:50;;;;;;;6.68;4.55;;;13.70;97.80;;;;;;5050458;28;20037;-59
2023/05/05 00:06:16;;;;;;;10.20;4.80;;;13.60;97.90;;;;;;5050591;28;20044;-60
2023/05/05 00:08:41;;;;;;;6.88;4.72;;;13.60;98.00;;;;;;5051981;28;20045;-59
2023/05/05 00:11:07;;;;;;;7.40;4.70;;;13.60;98.00;;;;;;5051654;28;20041;-62
2023/05/05 00:13:33;;;;;;;8.27;4.88;;;13.60;98.30;;;;;;5051832;28;20047;-59
2023/05/05 00:15:59;;;;;;;7.00;5.10;;;13.60;98.40;;;;;;5050319;28;20128;-60
2023/05/05 00:18:24;;;;;;;6.25;4.50;;;13.60;98.60;;;;;;5051307;28;20040;-61
2023/05/05 00:20:50;;;;;;;8.77;5.05;;;13.60;98.70;;;;;;5050574;28;20709;-59
2023/05/05 00:23:18;;;;;;;11.57;4.93;;;13.50;98.70;;;;;;5052192;28;20052;-61
2023/05/05 00:25:44;;;;;;;8.80;5.13;;;13.50;98.80;;;;;;5052297;28;20049;-59
2023/05/05 00:28:10;;;;;;;10.02;5.15;;;13.50;98.90;;;;;;5052256;28;20079;-61
2023/05/05 00:30:38;;;;;;;11.60;5.22;;;13.50;99.00;;;;;;5050827;28;20044;-60
2023/05/05 00:33:03;;;;;;;9.80;4.85;;;13.40;99.00;;;;;;5034103;28;20048;-61
2023/05/05 00:35:29;;;;;;;11.00;4.88;;;13.40;99.20;;;;;;5049730;28;20041;-59
2023/05/05 00:37:54;;;;;;;9.13;4.93;;;13.40;99.30;;;;;;5052223;28;20458;-61
2023/05/05 00:40:20;;;;;;;9.30;5.13;;;13.40;99.50;;;;;;5051272;28;20033;-59
2023/05/05 00:42:49;;;;;;;7.68;4.72;;;13.40;99.70;;;;;;5051073;28;20091;-61
2023/05/05 00:45:16;;;;;;;9.00;5.18;;;13.40;99.80;;;;;;5050048;28;20067;-60
2023/05/05 00:47:45;;;;;;;7.63;5.47;;;13.40;99.80;;;;;;5049403;28;20427;-58
2023/05/05 00:50:19;;;;;;;8.73;5.20;;;13.40;99.80;;;;;;5051414;28;20036;-60
2023/05/05 00:52:45;;;;;;;7.88;5.05;;;13.30;99.90;;;;;;5050324;28;20045;-61
2023/05/05 00:55:11;;;;;;;9.50;5.25;;;13.30;99.90;;;;;;5049634;28;20044;-61
2023/05/05 00:57:36;;;;;;;11.07;5.30;;;13.30;99.90;;;;;;5050592;28;20049;-60
2023/05/05 01:00:04;;;;;;;7.30;5.20;;;13.30;99.90;;;;;;5050802;28;20138;-60
2023/05/05 01:02:30;;;;;;;10.80;5.68;;;13.30;99.90;;;;;;5049401;28;20060;-59
2023/05/05 01:04:57;;;;;;;12.05;5.43;;;13.30;99.90;;;;;;5063106;28;20045;-60
2023/05/05 01:07:31;;;;;;;8.02;5.20;;;13.30;99.90;;;;;;5065486;28;20044;-60
2023/05/05 01:10:23;;;;;;;7.95;5.55;;;13.20;99.90;;;;;;5051447;28;20066;-60
2023/05/05 01:13:06;;;;;;;14.60;5.30;;;13.20;99.90;;;;;;5046273;28;20049;-61
2023/05/05 01:15:42;;;;;;;7.47;4.60;;;13.20;99.90;;;;;;5050329;28;20041;-59
2023/05/05 01:18:21;;;;;;;8.25;5.07;;;13.20;99.90;;;;;;5049242;28;20040;-59
2023/05/05 01:21:11;;;;;;;9.27;5.47;;;13.20;99.90;;;;;;5050586;28;20068;-60
2023/05/05 01:24:09;;;;;;;8.55;5.05;;;13.10;99.90;;;;;;5048491;28;20052;-61
2023/05/05 01:27:03;;;;;;;10.50;5.45;;;13.10;99.90;;;;;;5048214;28;20044;-59
2023/05/05 01:29:58;;;;;;;7.47;5.00;;;13.10;99.90;;;;;;5049132;28;20402;-60
2023/05/05 01:32:30;;;;;;;6.88;5.15;;;13.10;99.90;;;;;;5048739;28;20045;-61
2023/05/05 01:35:14;;;;;;;7.43;4.80;;;13.10;99.90;;;;;;5048988;28;20090;-59
2023/05/05 01:37:48;;;;;;;7.35;5.28;;;13.00;99.90;;;;;;5064339;28;20392;-60
2023/05/05 01:40:16;;;;;;;10.23;5.47;;;13.00;99.90;;;;;;5048582;28;20037;-59
2023/05/05 01:42:43;;;;;;;6.28;4.70;;;13.00;99.90;;;;;;5051320;28;20446;-60
2023/05/05 01:45:11;;;;;;;11.00;5.50;;;13.00;99.90;;;;;;5048724;28;20392;-59
2023/05/05 01:47:38;;;;;;;7.35;4.93;;;13.00;99.90;;;;;;5047040;28;20123;-59
2023/05/05 01:50:06;;;;;;;8.73;5.40;;;13.00;99.90;;;;;;5049384;28;20051;-60
2023/05/05 01:52:34;;;;;;;7.75;4.93;;;13.00;99.90;;;;;;5047849;28;20056;-59
2023/05/05 01:55:01;;;;;;;8.23;5.20;;;12.90;99.90;;;;;;5050365;28;20518;-59
2023/05/05 01:57:30;;;;;;;10.30;4.65;;;12.90;99.90;;;;;;5049985;28;20049;-60
2023/05/05 01:59:57;;;;;;;7.97;5.35;;;12.90;99.90;;;;;;5048563;28;20043;-60
2023/05/05 02:02:27;;;;;;;10.35;6.10;;;12.80;99.90;;;;;;5050914;28;20053;-60
2023/05/05 02:04:55;;;;;;;9.70;5.10;;;12.80;99.90;;;;;;5049230;28;20041;-60
2023/05/05 02:07:22;;;;;;;6.97;5.10;;;12.80;99.90;;;;;;5048308;28;20479;-62
2023/05/05 02:09:48;;;;;;;10.40;5.40;;;12.80;99.90;;;;;;5049545;28;20492;-59
2023/05/05 02:12:15;;;;;;;9.55;5.75;;;12.80;99.90;;;;;;5044921;28;20048;-60
2023/05/05 02:14:42;;;;;;;8.73;5.97;;;12.80;99.90;;;;;;5049507;28;20040;-59
2023/05/05 02:17:09;;;;;;;8.32;5.93;;;12.70;99.90;;;;;;5047732;28;20041;-60
2023/05/05 02:19:41;;;;;;;8.60;5.47;;;12.70;99.90;;;;;;5047002;28;20063;-60
2023/05/05 02:22:07;;;;;;;10.15;5.50;;;12.70;99.90;;;;;;5049030;28;20539;-60
2023/05/05 02:24:33;;;;;;;10.13;5.60;;;12.70;99.90;;;;;;5048140;28;20052;-59
2023/05/05 02:27:02;;;;;;;8.20;5.22;;;12.70;99.90;;;;;;5050094;28;20040;-60
2023/05/05 02:29:33;;;;;;;7.70;4.93;;;12.70;99.90;;;;;;5048848;28;20462;-59
2023/05/05 02:32:05;;;;;;;8.15;5.50;;;12.60;99.90;;;;;;5050253;28;20392;-59
2023/05/05 02:34:35;;;;;;;;;;;12.60;99.90;;;;;;5052688;28;20041;-60
2023/05/05 02:37:04;;;;;;;7.70;5.38;;;12.60;99.90;;;;;;5049028;28;20421;-61
2023/05/05 02:39:42;;;;;;;11.02;5.40;;;12.60;99.90;;;;;;5047886;28;20120;-59
2023/05/05 02:42:11;;;;;;;7.50;5.20;;;12.60;99.90;;;;;;5049873;28;20036;-60
2023/05/05 02:44:39;;;;;;;7.75;5.72;;;12.50;99.90;;;;;;5049708;28;20041;-60
2023/05/05 02:47:06;;;;;;;7.05;5.50;;;12.50;99.90;;;;;;5049653;28;20089;-59
2023/05/05 02:49:32;;;;;;;7.43;5.25;;;12.50;99.90;;;;;;5049729;28;20033;-59
2023/05/05 02:51:58;;;;;;;7.97;5.72;;;12.50;99.90;;;;;;5049717;28;20068;-60
2023/05/05 02:54:23;;;;;;;10.60;5.47;;;12.50;99.90;;;;;;5050869;28;20040;-61
2023/05/05 02:56:50;;;;;;;19.38;6.60;;;12.50;99.90;;;;;;5046628;28;20083;-59
2023/05/05 02:59:26;;;;;;;8.05;5.80;;;12.50;99.90;;;;;;5046813;28;20044;-59
2023/05/05 03:02:00;;;;;;;6.65;5.45;;;12.50;99.90;;;;;;5046803;28;20036;-59
2023/05/05 03:04:33;;;;;;;8.02;5.50;;;12.50;99.90;;;;;;5049528;28;20037;-59
2023/05/05 03:07:07;;;;;;;10.50;5.93;;;12.50;99.90;;;;;;5048671;28;20443;-62
2023/05/05 03:09:39;;;;;;;12.38;5.82;;;12.40;99.90;;;;;;5047165;28;20068;-60
2023/05/05 03:12:08;;;;;;;8.82;5.78;;;12.40;99.90;;;;;;5048621;28;20361;-60
2023/05/05 03:14:40;;;;;;;7.70;5.55;;;12.40;99.90;;;;;;5047895;28;20067;-60
2023/05/05 03:17:07;;;;;;;;;;;12.40;99.90;;;;;;5048160;28;20484;-58
2023/05/05 03:19:34;;;;;;;10.38;7.15;;;12.40;99.90;;;;;;5046399;28;19927;-59
2023/05/05 03:22:01;;;;;;;7.88;5.88;;;12.40;99.90;;;;;;5048614;28;20033;-60
2023/05/05 03:24:27;;;;;;;7.00;5.80;;;12.30;99.90;;;;;;5045951;28;20045;-59
2023/05/05 03:26:53;;;;;;;7.95;6.50;;;12.30;99.90;;;;;;5048414;28;20036;-59
2023/05/05 03:29:18;;;;;;;10.25;6.07;;;12.30;99.90;;;;;;5049691;28;20075;-60
2023/05/05 03:31:44;;;;;;;8.27;6.28;;;12.30;99.90;;;;;;5048331;28;20036;-60
2023/05/05 03:34:10;;;;;;;9.02;6.60;;;12.30;99.90;;;;;;5047933;28;20040;-59
2023/05/05 03:36:37;;;;;;;9.35;6.40;;;12.30;99.90;;;;;;5047616;28;20436;-60
2023/05/05 03:39:03;;;;;;;8.10;7.18;;;12.30;99.90;;;;;;5048366;28;20132;-60
2023/05/05 03:41:28;;;;;;;10.32;6.43;;;12.20;99.90;;;;;;5046474;28;20044;-60
2023/05/05 03:43:54;;;;;;;8.75;6.55;;;12.20;99.90;;;;;;5047569;28;20037;-60
2023/05/05 03:46:20;;;;;;;8.90;7.15;;;12.20;99.90;;;;;;5046370;28;20109;-61
2023/05/05 03:48:45;;;;;;;8.95;7.55;;;12.20;99.90;;;;;;5048649;28;20043;-61
2023/05/05 03:51:12;;;;;;;9.48;6.97;;;12.20;99.90;;;;;;5048257;28;20142;-61
2023/05/05 03:53:38;;;;;;;12.73;7.72;;;12.20;99.90;;;;;;5050806;28;20432;-60
2023/05/05 03:56:04;;;;;;;10.48;7.15;;;12.20;99.90;;;;;;5051896;28;20057;-59
2023/05/05 03:58:29;;;;;;;11.02;7.60;;;12.10;99.90;;;;;;5053091;28;20041;-60
2023/05/05 04:00:56;;;;;;;15.15;7.93;;;12.10;99.90;;;;;;5051719;28;20504;-62
2023/05/05 04:03:21;;;;;;;19.05;8.60;;;12.10;99.90;;;;;;5051491;28;20104;-59
2023/05/05 04:05:47;;;;;;;13.10;8.63;;;12.00;99.90;;;;;;5050460;28;20553;-60
2023/05/05 04:08:13;;;;;;;10.63;8.68;;;12.00;99.90;;;;;;5031150;28;20074;-60
2023/05/05 04:10:38;;;;;;;13.02;8.68;;;11.90;99.90;;;;;;5051379;28;20041;-59
2023/05/05 04:13:04;;;;;;;13.32;8.90;;;11.90;99.90;;;;;;5049838;28;20033;-61
2023/05/05 04:15:29;;;;;;;13.10;8.93;;;11.90;99.90;;;;;;5051246;28;20412;-59
2023/05/05 04:17:55;;;;;;;10.98;8.82;;;11.80;99.90;;;;;;5051053;28;20069;-61
2023/05/05 04:20:21;;;;;;;14.25;9.73;;;11.80;99.90;;;;;;5049558;28;20044;-60
2023/05/05 04:22:46;;;;;;;12.05;9.60;;;11.80;99.90;;;;;;5049688;28;20119;-62
2023/05/05 04:25:12;;;;;;;13.75;9.38;;;11.70;99.90;;;;;;5051176;28;20120;-61
2023/05/05 04:27:38;;;;;;;14.82;9.90;;;11.50;99.90;;;;;;5052217;28;20110;-59
2023/05/05 04:30:04;;;;;;;12.88;9.63;;;11.50;99.90;;;;;;5051070;28;20084;-61
2023/05/05 04:32:30;;;;;;;10.90;8.73;;;11.50;99.90;;;;;;5031692;28;20086;-61
2023/05/05 04:34:56;;;;;;;12.57;9.95;;;11.50;99.90;;;;;;5051459;28;20076;-61
2023/05/05 04:37:21;;;;;;;15.75;10.40;;;11.50;99.90;;;;;;5051489;28;20064;-61
2023/05/05 04:39:47;;;;;;;12.15;10.00;;;11.50;99.90;;;;;;5050400;28;20070;-61
2023/05/05 04:42:12;;;;;;;10.75;9.60;;;11.40;99.90;;;;;;5053406;28;20131;-60
2023/05/05 04:44:38;;;;;;;11.38;10.18;;;11.40;99.90;;;;;;5048979;28;20488;-60
2023/05/05 04:47:04;;;;;;;12.23;9.57;;;11.40;99.90;;;;;;5049626;28;20049;-60
2023/05/05 04:49:30;;;;;;;13.48;10.15;;;11.40;99.90;;;;;;5049340;28;20029;-59
2023/05/05 04:51:56;;;;;;;12.10;9.77;;;11.40;99.90;;;;;;5052110;28;20032;-62
2023/05/05 04:54:22;;;;;;;12.70;9.38;;;11.40;99.90;;;;;;5050860;28;20072;-61
2023/05/05 04:56:48;;;;;;;11.88;9.50;;;11.40;99.90;;;;;;5049648;28;20442;-62
2023/05/05 04:59:15;;;;;;;12.00;9.30;;;11.40;99.90;;;;;;5050064;28;20169;-60
2023/05/05 05:01:41;;;;;;;10.88;9.52;;;11.40;99.90;;;;;;5046957;28;20120;-60
2023/05/05 05:04:07;;;;;;;13.98;10.55;;;11.40;99.90;;;;;;5049371;28;20428;-61
2023/05/05 05:06:33;;;;;;;15.50;11.27;;;11.40;99.90;;;;;;5048961;28;20049;-59
2023/05/05 05:08:59;;;;;;;12.55;10.20;;;11.40;99.90;;;;;;5050544;28;20472;-61
2023/05/05 05:11:26;;;;;;;14.07;10.43;;;11.30;99.90;;;;;;5049107;28;20036;-61
2023/05/05 05:13:51;;;;;;;14.98;10.38;;;11.40;99.90;;;;;;5051444;28;20499;-61
2023/05/05 05:16:17;;;;;;;12.00;10.25;;;11.40;99.90;;;;;;5048405;28;20065;-61
2023/05/05 05:18:43;;;;;;;13.07;10.80;;;11.60;99.90;;;;;;5050399;28;20040;-61
2023/05/05 05:21:09;;;;;;;11.20;9.93;;;11.70;99.90;;;;;;5049324;28;20044;-59
2023/05/05 05:23:35;;;;;;;14.75;10.10;;;11.80;99.90;;;;;;5050650;28;20095;-59
2023/05/05 05:26:01;;;;;;;13.98;10.00;;;11.90;99.90;;;;;;5047429;28;20045;-60
2023/05/05 05:28:26;;;;;;;13.20;10.60;;;12.00;99.90;;;;;;5050362;28;20053;-61
2023/05/05 05:30:52;;;;;;;12.40;10.32;;;12.10;99.90;;;;;;5048032;28;20491;-61
2023/05/05 05:33:18;;;;;;;12.32;9.65;;;12.10;99.90;;;;;;5066306;28;20047;-59
2023/05/05 05:35:44;;;;;;;12.73;9.73;;;12.30;99.90;;;;;;5049803;28;20048;-60
2023/05/05 05:38:10;;;;;;;13.75;10.32;;;12.40;99.90;;;;;;5050328;28;20454;-60
2023/05/05 05:40:36;;;;;;;13.65;9.77;;;12.40;99.90;;;;;;5047996;28;20033;-61
2023/05/05 05:43:02;;;;;;;14.82;9.10;;;12.50;99.90;;;;;;5051622;28;20483;-59
2023/05/05 05:45:27;;;;;;;12.80;9.80;;;12.60;99.90;;;;;;5050907;28;20029;-61
2023/05/05 05:47:53;;;;;;;13.63;10.00;;;12.60;99.90;;;;;;5053455;28;20037;-59
2023/05/05 05:50:19;;;;;;;11.90;9.95;;;12.50;99.90;;;;;;5050741;28;20041;-59
2023/05/05 05:52:45;;;;;;;11.90;9.00;;;12.50;99.90;;;;;;5049972;28;20040;-61
2023/05/05 05:55:11;;;;;;;11.45;9.32;;;12.60;99.90;;;;;;5049389;28;20037;-61
2023/05/05 05:57:36;;;;;;;13.68;9.80;;;12.60;99.90;;;;;;5049057;28;20076;-61
2023/05/05 06:00:02;;;;;;;10.90;9.02;;;12.70;99.90;;;;;;5050823;28;20095;-59
2023/05/05 06:02:28;;;;;;;11.77;8.75;;;12.70;99.90;;;;;;5050896;28;20041;-60
2023/05/05 06:04:54;;;;;;;10.80;9.38;;;12.80;99.90;;;;;;5049677;28;20045;-61
2023/05/05 06:07:19;;;;;;;12.93;8.80;;;12.90;99.90;;;;;;5049052;28;20029;-61
2023/05/05 06:09:45;;;;;;;13.02;9.15;;;13.00;99.90;;;;;;5049685;28;20369;-60
2023/05/05 06:12:11;;;;;;;11.65;9.45;;;13.20;99.90;;;;;;5045227;28;20045;-60
2023/05/05 06:14:36;;;;;;;12.20;8.77;;;13.30;99.90;;;;;;5047483;28;20507;-60
2023/05/05 06:17:02;;;;;;;12.40;9.25;;;13.30;99.90;;;;;;5047883;28;20068;-59
2023/05/05 06:19:28;;;;;;;11.95;9.27;;;13.30;99.90;;;;;;5049713;28;20543;-60
2023/05/05 06:21:54;;;;;;;13.10;9.68;;;13.50;99.90;;;;;;5049537;28;20399;-59
2023/05/05 06:24:19;;;;;;;13.00;10.75;;;13.60;99.90;;;;;;5050944;28;20048;-58
2023/05/05 06:26:45;;;;;;;10.32;9.23;;;13.80;99.90;;;;;;5050291;28;20067;-59
2023/05/05 06:29:11;;;;;;;10.65;8.88;;;13.90;99.90;;;;;;5050224;28;20036;-59
2023/05/05 06:31:36;;;;;;;12.70;9.38;;;14.10;99.90;;;;;;5050234;28;20071;-60
2023/05/05 06:34:02;;;;;;;12.18;9.40;;;14.30;99.90;;;;;;5049975;28;20033;-60
2023/05/05 06:36:28;;;;;;;10.35;9.23;;;14.40;99.90;;;;;;5050065;28;20056;-60
2023/05/05 06:38:53;;;;;;;12.45;9.25;;;14.50;99.90;;;;;;5049123;28;20140;-60
2023/05/05 06:41:19;;;;;;;12.70;9.35;;;14.70;99.90;;;;;;5050227;28;20063;-60
2023/05/05 06:43:45;;;;;;;14.52;9.82;;;14.60;99.90;;;;;;5047250;28;20045;-60
2023/05/05 06:46:11;;;;;;;11.20;9.50;;;14.80;99.90;;;;;;5049953;28;20373;-59
2023/05/05 06:48:37;;;;;;;11.35;9.45;;;14.90;99.90;;;;;;5049792;28;20123;-60
2023/05/05 06:51:02;;;;;;;13.70;9.77;;;15.00;99.90;;;;;;5050125;28;20396;-60
2023/05/05 06:53:28;;;;;;;12.70;9.75;;;15.20;99.90;;;;;;5050196;28;20044;-59
2023/05/05 06:55:54;;;;;;;11.40;9.30;;;15.30;99.90;;;;;;5050090;28;20114;-60
2023/05/05 06:58:20;;;;;;;12.05;9.48;;;15.50;99.90;;;;;;5049920;28;20247;-61
2023/05/05 07:00:46;;;;;;;13.10;9.23;;;15.60;99.90;;;;;;5049853;28;20373;-60
2023/05/05 07:03:12;;;;;;;11.63;9.52;;;15.80;99.90;;;;;;5047768;28;20582;-59
2023/05/05 07:05:38;;;;;;;14.40;9.18;;;15.90;99.90;;;;;;5049577;28;20128;-60
2023/05/05 07:08:04;;;;;;;14.23;9.38;;;16.00;99.90;;;;;;5049931;28;20116;-60
2023/05/05 07:10:30;;;;;;;11.95;10.18;;;16.00;99.90;;;;;;5048793;28;20036;-61
2023/05/05 07:12:56;;;;;;;11.10;9.57;;;16.20;99.90;;;;;;5049052;28;20045;-60
2023/05/05 07:15:22;;;;;;;12.38;10.13;;;16.30;99.90;;;;;;5065092;28;20052;-61
2023/05/05 07:17:48;;;;;;;11.77;9.73;;;16.40;99.90;;;;;;5049641;28;20039;-60
2023/05/05 07:20:14;;;;;;;12.65;9.95;;;16.50;99.90;;;;;;5049703;28;20530;-60
2023/05/05 07:22:39;;;;;;;10.38;9.18;;;16.60;99.90;;;;;;5049629;28;20077;-60
2023/05/05 07:25:06;;;;;;;13.13;10.48;;;16.70;99.90;;;;;;5050303;28;20080;-59
2023/05/05 07:27:31;;;;;;;11.65;9.63;;;16.60;99.90;;;;;;5053920;28;20099;-60
2023/05/05 07:29:57;;;;;;;12.20;10.05;;;16.80;99.90;;;;;;5052533;28;20037;-59
2023/05/05 07:32:23;;;;;;;12.80;10.10;;;16.80;99.90;;;;;;5054236;28;20377;-60
2023/05/05 07:34:49;;;;;;;14.43;11.65;;;17.00;99.90;;;;;;5053537;28;20064;-60
2023/05/05 07:37:15;;;;;;;14.75;11.57;;;16.90;99.90;;;;;;5058972;28;20593;-59
2023/05/05 07:39:40;;;;;;;14.45;10.57;;;17.10;99.90;;;;;;5052415;28;20033;-59
2023/05/05 07:42:06;;;;;;;15.60;11.15;;;17.10;99.90;;;;;;5053338;28;20542;-60
2023/05/05 07:44:32;;;;;;;15.23;11.48;;;17.00;99.90;;;;;;5053658;28;20045;-60
2023/05/05 07:46:58;;;;;;;13.90;11.15;;;17.10;99.90;;;;;;5053591;28;20033;-60
2023/05/05 07:49:24;;;;;;;13.38;10.75;;;17.10;99.90;;;;;;5053352;28;20525;-62
2023/05/05 07:51:49;;;;;;;15.82;11.82;;;17.30;99.90;;;;;;5053337;28;20029;-59
2023/05/05 07:54:18;;;;;;;14.93;11.80;;;17.40;99.90;;;;;;5053167;28;20043;-62
2023/05/05 07:56:44;;;;;;;14.23;11.80;;;17.70;99.90;;;;;;5052883;28;20041;-61
2023/05/05 07:59:10;;;;;;;13.18;11.77;;;17.60;99.90;;;;;;5055433;28;20033;-59
2023/05/05 08:01:36;;;;;;;16.25;11.35;;;17.70;99.90;;;;;;5052529;28;20036;-60
2023/05/05 08:04:02;;;;;;;17.08;12.85;;;17.70;99.90;;;;;;5052143;28;20037;-61
2023/05/05 08:06:28;;;;;;;17.42;13.18;;;17.70;99.90;;;;;;5051889;28;20391;-60
2023/05/05 08:08:54;;;;;;;16.65;13.90;;;17.80;99.90;;;;;;5053778;28;20029;-59
2023/05/05 08:11:23;;;;;;;16.80;14.27;;;17.80;99.90;;;;;;5051602;28;20121;-61
2023/05/05 08:13:49;;;;;;;18.23;14.90;;;17.90;99.90;;;;;;5051774;28;20411;-60
2023/05/05 08:16:14;;;;;;;16.98;14.25;;;18.10;99.90;;;;;;5051693;28;20041;-60
2023/05/05 08:18:40;;;;;;;18.33;14.00;;;18.30;99.90;;;;;;5052968;28;20398;-60
2023/05/05 08:21:07;;;;;;;18.77;14.18;;;18.40;99.90;;;;;;5050973;28;20071;-59
2023/05/05 08:23:34;;;;;;;15.68;12.95;;;18.20;99.90;;;;;;5052071;28;20025;-62
2023/05/05 08:26:00;;;;;;;19.58;14.30;;;18.30;99.90;;;;;;5051853;28;20033;-61
2023/05/05 08:28:26;;;;;;;17.88;13.80;;;18.30;99.90;;;;;;5066721;28;20049;-59
2023/05/05 08:30:52;;;;;;;17.23;14.40;;;18.50;99.90;;;;;;5050997;28;20033;-60
2023/05/05 08:33:18;;;;;;;17.20;12.65;;;18.60;99.90;;;;;;5051657;28;20037;-60
2023/05/05 08:35:44;;;;;;;19.20;13.88;;;18.80;99.90;;;;;;5051692;28;20173;-60
2023/05/05 08:38:10;;;;;;;17.48;14.68;;;18.80;99.90;;;;;;5049289;28;20037;-60
2023/05/05 08:40:38;;;;;;;19.10;13.45;;;18.90;99.90;;;;;;5050251;28;20051;-60
2023/05/05 08:43:04;;;;;;;17.23;12.43;;;19.00;99.90;;;;;;5051924;28;20036;-58
2023/05/05 08:45:30;;;;;;;16.38;13.82;;;19.30;99.90;;;;;;5066432;28;20049;-60
2023/05/05 08:47:57;;;;;;;17.30;13.38;;;19.50;99.90;;;;;;5051076;28;20419;-59
2023/05/05 08:50:27;;;;;;;17.25;12.48;;;19.40;99.90;;;;;;5051165;28;20067;-59
2023/05/05 08:53:09;;;;;;;15.40;11.90;;;19.50;99.90;;;;;;5051365;28;20036;-59
2023/05/05 08:56:06;;;;;;;14.40;10.70;;;19.30;99.90;;;;;;5053770;28;20088;-59
2023/05/05 08:58:35;;;;;;;11.20;8.05;;;19.50;99.90;;;;;;5012364;28;20050;-60
2023/05/05 09:01:01;;;;;;;15.43;10.63;;;19.70;99.90;;;;;;5011715;28;20049;-60
2023/05/05 09:03:28;;;;;;;15.85;10.15;;;19.70;99.90;;;;;;5008893;28;20081;-60
2023/05/05 09:05:54;;;;;;;14.13;7.70;;;19.70;99.90;;;;;;5009356;28;20100;-60
2023/05/05 09:08:20;;;;;;;12.75;8.23;;;19.70;99.90;;;;;;4992930;28;20093;-59
2023/05/05 09:10:47;;;;;;;12.73;8.15;;;20.00;99.90;;;;;;5009707;28;20037;-60
2023/05/05 09:13:13;;;;;;;10.63;7.10;;;20.10;99.90;;;;;;5020959;28;20044;-60
2023/05/05 09:15:40;;;;;;;12.00;7.10;;;20.20;99.90;;;;;;5011853;28;20061;-60
2023/05/05 09:18:08;;;;;;;10.57;7.70;;;20.40;99.90;;;;;;5027983;28;20044;-60
2023/05/05 09:20:35;;;;;;;9.63;6.70;;;20.30;99.90;;;;;;5010794;28;20055;-61
2023/05/05 09:23:12;;;;;;;14.57;7.60;;;20.60;99.90;;;;;;5008706;28;20061;-60
2023/05/05 09:25:39;;;;;;;8.27;7.07;;;20.80;99.90;;;;;;5008231;28;20081;-61
2023/05/05 09:28:13;;;;;;;9.57;6.88;;;21.10;99.90;;;;;;5007964;28;20512;-60
2023/05/05 09:30:40;;;;;;;10.70;6.90;;;21.30;99.90;;;;;;5008088;28;20052;-60
2023/05/05 09:33:06;;;;;;;10.63;6.32;;;21.20;99.90;;;;;;5009602;28;20088;-59
2023/05/05 09:35:51;;;;;;;10.32;4.88;;;21.10;99.90;;;;;;5040041;28;20466;-60
2023/05/05 09:38:22;;;;;;;7.78;6.30;;;21.40;99.90;;;;;;5051390;28;20092;-61
2023/05/05 09:40:52;;;;;;;9.93;6.40;;;21.50;99.90;;;;;;5050252;28;20037;-59
2023/05/05 09:43:20;;;;;;;6.25;4.82;;;21.80;99.90;;;;;;5050763;28;20043;-60
2023/05/05 09:45:47;;;;;;;10.25;5.60;;;21.80;99.90;;;;;;5049884;28;20569;-61
2023/05/05 09:48:26;;;;;;;8.77;4.85;;;21.80;99.90;;;;;;5049457;28;20041;-59
2023/05/05 09:50:52;;;;;;;7.03;5.45;;;21.80;99.40;;;;;;5050296;28;20033;-60
2023/05/05 09:53:18;;;;;;;9.85;6.07;;;21.60;99.90;;;;;;5049037;28;20049;-61
2023/05/05 09:55:58;;;;;;;10.10;6.25;;;21.30;99.90;;;;;;5049834;28;20496;-62
2023/05/05 09:58:28;;;;;;;9.95;6.57;;;21.20;99.90;;;;;;5053539;28;20059;-60
2023/05/05 10:00:55;;;;;;;9.68;7.00;;;20.90;99.90;;;;;;5050764;28;20043;-60
2023/05/05 10:03:21;;;;;;;8.63;6.22;;;20.50;99.90;;;;;;5049291;28;20037;-59
2023/05/05 10:05:51;;;;;;;8.05;6.35;;;20.40;99.90;;;;;;5050139;28;20454;-61
2023/05/05 10:08:23;;;;;;;9.30;6.40;;;20.40;99.90;;;;;;5049487;28;20119;-61
2023/05/05 10:10:59;;;;;;;9.00;5.68;;;20.50;99.90;;;;;;5050067;28;20032;-60
2023/05/05 10:13:26;;;;;;;6.60;5.35;;;20.20;99.90;;;;;;5050253;28;20179;-60
2023/05/05 10:15:54;;;;;;;7.18;4.88;;;20.10;99.90;;;;;;5050411;28;20051;-61
2023/05/05 10:18:25;;;;;;;7.63;4.72;;;20.00;99.90;;;;;;5050648;28;20094;-62
2023/05/05 10:20:58;;;;;;;7.20;4.43;;;20.40;99.90;;;;;;5049555;28;20048;-62
2023/05/05 10:23:46;;;;;;;5.75;4.35;;;20.70;99.90;;;;;;5047954;28;20301;-60
2023/05/05 10:26:13;;;;;;;6.95;3.72;;;21.20;99.90;;;;;;5047819;28;20127;-60
2023/05/05 10:28:50;;;;;;;8.05;3.80;;;21.50;99.90;;;;;;5048792;28;20033;-60
2023/05/05 10:31:19;;;;;;;4.68;3.03;;;21.70;99.90;;;;;;5047495;28;20150;-62
2023/05/05 10:33:55;;;;;;;5.13;3.00;;;21.50;98.80;;;;;;5048063;28;20108;-61
2023/05/05 10:36:22;;;;;;;7.53;3.70;;;21.50;99.40;;;;;;5045624;28;20093;-62
2023/05/05 10:38:52;;;;;;;6.03;3.22;;;21.40;99.30;;;;;;5050331;28;20280;-61
2023/05/05 10:41:20;;;;;;;6.97;4.00;;;21.70;99.40;;;;;;5049037;28;20036;-59
2023/05/05 10:43:46;;;;;;;5.47;3.72;;;21.70;99.30;;;;;;5048677;28;20098;-61
2023/05/05 10:46:12;;;;;;;7.05;4.00;;;21.70;99.30;;;;;;5049751;28;20045;-60
2023/05/05 10:48:54;;;;;;;8.55;4.85;;;22.00;99.80;;;;;;5046761;28;20045;-59
2023/05/05 10:51:40;;;;;;;6.85;4.07;;;21.90;99.20;;;;;;5050055;28;20033;-61
2023/05/05 10:54:25;;;;;;;5.65;2.90;;;21.80;98.70;;;;;;5027483;28;20045;-61
2023/05/05 10:56:51;;;;;;;6.53;3.45;;;21.60;97.20;;;;;;5026352;28;20073;-60
2023/05/05 10:59:37;;;;;;;6.15;3.10;;;21.30;98.00;;;;;;5026259;28;20551;-60
2023/05/05 11:02:20;;;;;;;7.68;3.53;;;21.10;98.00;;;;;;5024957;28;20127;-60
2023/05/05 11:05:08;;;;;;;6.82;3.55;;;20.80;98.60;;;;;;5011125;28;20050;-61
2023/05/05 11:07:34;;;;;;;5.90;2.97;;;20.40;99.10;;;;;;5009352;28;20053;-61
2023/05/05 11:10:04;;;;;;;6.47;3.42;;;20.20;99.90;;;;;;5027511;28;20033;-61
2023/05/05 11:12:32;;;;;;;5.28;3.83;;;20.20;99.90;;;;;;5026229;28;20093;-62
2023/05/05 11:15:36;;;;;;;7.00;3.85;;;20.10;99.80;;;;;;5027257;28;20045;-61
2023/05/05 11:18:03;;;;;;;5.30;3.60;;;20.20;99.90;;;;;;5026334;28;20045;-59
2023/05/05 11:20:42;;;;;;;4.57;3.20;;;20.20;99.90;;;;;;5024848;28;20048;-60
2023/05/05 11:23:07;;;;;;;6.18;3.80;;;20.20;99.90;;;;;;5027083;28;20506;-61
2023/05/05 11:25:35;;;;;;;8.65;4.07;;;20.10;99.90;;;;;;5027313;28;20046;-60
2023/05/05 11:28:05;;;;;;;7.88;3.78;;;20.00;99.90;;;;;;5027271;28;20411;-62
2023/05/05 11:30:31;;;;;;;5.60;3.83;;;20.00;99.90;;;;;;5032216;28;20049;-60
2023/05/05 11:33:25;;;;;;;8.20;4.35;;;19.90;99.90;;;;;;5049110;28;20033;-61
2023/05/05 11:35:58;;;;;;;6.35;4.22;;;19.90;99.90;;;;;;5044104;28;20048;-61
2023/05/05 11:39:01;;;;;;;7.82;4.10;;;19.90;99.90;;;;;;5048992;28;20037;-61
2023/05/05 11:41:33;;;;;;;5.97;4.28;;;19.90;99.90;;;;;;5058437;28;20045;-62
2023/05/05 11:44:10;;;;;;;6.83;4.47;;;20.00;99.90;;;;;;5049371;28;20051;-62
2023/05/05 11:46:38;;;;;;;6.65;3.72;;;19.90;99.90;;;;;;5048188;28;20307;-60
2023/05/05 11:49:04;;;;;;;7.75;4.50;;;19.90;99.90;;;;;;5048658;28;20063;-61
2023/05/05 11:51:30;;;;;;;7.93;4.70;;;20.00;99.90;;;;;;5048634;28;20037;-60
2023/05/05 11:53:56;;;;;;;7.20;4.72;;;19.90;99.90;;;;;;5049217;28;20044;-60
2023/05/05 11:56:22;;;;;;;8.00;4.53;;;19.90;99.90;;;;;;5049258;28;20067;-61
2023/05/05 11:58:58;;;;;;;6.47;3.60;;;19.90;99.90;;;;;;5049472;28;20470;-61
2023/05/05 12:01:23;;;;;;;7.75;3.80;;;19.70;99.90;;;;;;5049036;28;20044;-61
2023/05/05 12:03:49;;;;;;;6.88;2.90;;;19.50;99.90;;;;;;5049678;28;20127;-61
2023/05/05 12:06:14;;;;;;;8.85;3.40;;;19.30;99.90;;;;;;5046851;28;20077;-60
2023/05/05 12:08:40;;;;;;;6.57;3.58;;;19.20;99.90;;;;;;5046849;28;20033;-61
2023/05/05 12:11:07;;;;;;;6.13;3.72;;;19.10;99.90;;;;;;5049551;28;20029;-61
2023/05/05 12:13:33;;;;;;;7.45;3.75;;;18.90;99.90;;;;;;5051766;28;20029;-60
2023/05/05 12:16:12;;;;;;;10.45;7.20;;;18.60;99.90;;;;;;5049879;28;20094;-60
2023/05/05 12:18:39;;;;;;;8.65;6.93;;;18.30;99.90;;;;;;5051908;28;20036;-61
2023/05/05 12:21:18;;;;;;;8.20;6.18;;;18.00;99.90;;;;;;5052679;28;20036;-61
2023/05/05 12:23:44;;;;;;;8.27;4.82;;;17.60;99.90;;;;;;5052504;28;20557;-62
2023/05/05 12:26:30;;;;;;;9.68;4.82;;;16.90;99.90;;;;;;5052271;28;20029;-60
2023/05/05 12:28:59;;;;;;;5.47;2.83;;;16.10;99.90;;;;;;5053103;28;21114;-62
2023/05/05 12:31:40;;;;;;;3.35;1.73;;;15.50;99.90;;;;;;5052660;28;20365;-60
2023/05/05 12:34:09;;;;;;;3.83;1.73;;;15.10;99.90;;;;;;5052699;28;20032;-60
2023/05/05 12:36:36;;;;;;;5.53;2.33;;;14.70;99.90;;;;;;5052680;28;20043;-61
2023/05/05 12:39:06;;;;;;;8.95;2.90;;;14.40;99.90;;;;;;5052352;28;20108;-59
2023/05/05 12:41:32;;;;;;;6.32;2.50;;;14.20;99.90;;;;;;5052161;28;20041;-61
2023/05/05 12:43:59;;;;;;;6.88;3.03;;;14.00;99.90;;;;;;5052410;28;20037;-59
2023/05/05 12:46:28;;;;;;;5.18;2.78;;;13.90;99.90;;;;;;5052035;28;20128;-61
2023/05/05 12:49:07;;;;;;;6.18;2.63;;;13.90;99.90;;;;;;5050989;28;20036;-62